Main page
METAR-TAF:

METAR-TAF

Airports :

Singapore Changi Airport

Singapore, Singapore

latitude: 01-22N, longitude: 103-59E, elevation: 5 m

Current weather observation

The report was made 14 minutes ago, at 04:30 UTC
Wind 11 kt from the Northeast, varying between North and East/Northeast
Temperature 31°C
Humidity 59%
Pressure 1013 hPa
Visibility 10 km or more
Scattered clouds at a height of 2200 ft
Scattered clouds at a height of 35000 ft

METAR: WSSS 240430Z 04011KT 360V070 9999 SCT022 SCT350 31/22 Q1013 NOSIG

Time: 12:44 (04:44 UTC)

Forecast

The report was made 5 hours and 44 minutes ago, at 23:00 UTC
Forecast valid from 24 at 00 UTC to 25 at 06 UTC
Wind 8 kt from the North/Northeast
Visibility 10 km or more
Scattered clouds at a height of 2000 ft

TAF: WSSS 232300Z 2400/2506 03008KT 9999 SCT020

Weather observations and forecasts of more than 4000 airports (METAR and TAF reports).

The available stations are represented by yellow and red dots on the map.

Hover mouse over dot to see the name of the station.

Then click to see weather observations and forecasts.

To change the map : click on the green buttons with a black cross to zoom in, on the green button with a dash to zoom out, or on the green arrows for adjacent maps.


METAR-TAF: